createdAt,value
2019-02-02T00:00:54.524Z,6.37
2019-02-02T00:01:33.381Z,6.33
2019-02-02T00:02:15.070Z,4.73
2019-02-02T00:02:51.288Z,5.37
2019-02-02T00:03:29.154Z,5.20
2019-02-02T00:04:05.434Z,5.37
2019-02-02T00:04:41.574Z,5.37
2019-02-02T00:05:17.794Z,5.10
2019-02-02T00:05:54.043Z,5.30
2019-02-02T00:06:30.209Z,5.17
2019-02-02T00:07:06.467Z,6.37
2019-02-02T00:07:42.604Z,5.73
2019-02-02T00:08:18.578Z,5.30
2019-02-02T00:08:54.615Z,6.27
2019-02-02T00:09:30.670Z,5.33
2019-02-02T00:10:07.173Z,5.40
2019-02-02T00:10:43.170Z,5.10
2019-02-02T00:11:19.335Z,5.43
2019-02-02T00:11:55.395Z,6.00
2019-02-02T00:12:31.563Z,5.90
2019-02-02T00:13:07.716Z,6.47
2019-02-02T00:13:43.659Z,5.50
2019-02-02T00:14:19.904Z,5.83
2019-02-02T00:14:55.784Z,5.77
2019-02-02T00:15:31.838Z,6.00
2019-02-02T00:16:08.203Z,5.70
2019-02-02T00:16:44.302Z,5.60
2019-02-02T00:17:20.625Z,5.00
2019-02-02T00:17:56.879Z,5.60
2019-02-02T00:18:33.081Z,5.23
2019-02-02T00:19:09.174Z,5.13
2019-02-02T00:19:45.733Z,5.50
2019-02-02T00:20:21.801Z,4.90
2019-02-02T00:20:57.930Z,5.90
2019-02-02T00:21:33.996Z,4.97
2019-02-02T00:22:09.960Z,5.47
2019-02-02T00:22:45.995Z,4.53
2019-02-02T00:23:22.165Z,4.77
2019-02-02T00:23:58.311Z,4.67
2019-02-02T00:24:34.464Z,4.13
2019-02-02T00:25:10.629Z,5.73
2019-02-02T00:25:46.663Z,5.53
2019-02-02T00:26:22.643Z,4.87
2019-02-02T00:26:58.586Z,4.70
2019-02-02T00:27:41.474Z,5.20
2019-02-02T00:28:12.638Z,5.60
2019-02-02T00:28:48.679Z,5.20
2019-02-02T00:29:24.768Z,5.17
2019-02-02T00:30:00.917Z,6.03
2019-02-02T00:30:37.109Z,3.80
2019-02-02T00:31:13.190Z,3.73
2019-02-02T00:31:49.357Z,4.70
2019-02-02T00:32:25.448Z,4.87
2019-02-02T00:33:01.681Z,4.83
2019-02-02T00:33:37.809Z,4.67
2019-02-02T00:34:14.026Z,4.60
2019-02-02T00:34:50.040Z,5.33
2019-02-02T00:35:26.184Z,5.70
2019-02-02T00:36:03.860Z,5.00
2019-02-02T00:36:39.947Z,5.63
2019-02-02T00:37:16.114Z,5.30
2019-02-02T00:37:52.072Z,4.67
2019-02-02T00:38:28.094Z,5.30
2019-02-02T00:39:04.821Z,5.20
2019-02-02T00:39:41.050Z,5.17
2019-02-02T00:40:17.297Z,4.50
2019-02-02T00:40:53.609Z,4.07
2019-02-02T00:41:29.880Z,5.50
2019-02-02T00:42:06.036Z,4.17
2019-02-02T00:42:42.053Z,4.60
2019-02-02T00:43:18.081Z,4.83
2019-02-02T00:43:54.308Z,4.90
2019-02-02T00:44:30.270Z,4.00
2019-02-02T00:45:07.485Z,5.70
2019-02-02T00:45:43.541Z,4.70
2019-02-02T00:46:19.714Z,4.87
2019-02-02T00:46:56.030Z,5.60
2019-02-02T00:47:32.316Z,5.50
2019-02-02T00:48:08.334Z,4.40
2019-02-02T00:48:44.547Z,5.70
2019-02-02T00:49:20.514Z,4.37
2019-02-02T00:49:56.437Z,4.50
2019-02-02T00:50:32.455Z,5.27
2019-02-02T00:51:08.730Z,4.63
2019-02-02T00:51:44.788Z,4.70
2019-02-02T00:52:20.749Z,5.83
2019-02-02T00:52:56.939Z,5.33
2019-02-02T00:53:32.882Z,4.13
2019-02-02T00:54:08.906Z,5.80
2019-02-02T00:54:45.041Z,4.83
2019-02-02T00:55:21.264Z,4.33
2019-02-02T00:55:57.270Z,4.60
2019-02-02T00:56:33.302Z,4.60
2019-02-02T00:57:09.348Z,4.63
2019-02-02T00:57:53.074Z,5.83
2019-02-02T00:58:23.294Z,3.97
2019-02-02T00:58:59.371Z,4.40
2019-02-02T00:59:35.437Z,4.73
2019-02-02T01:00:13.825Z,5.67
2019-02-02T01:00:49.958Z,4.60
2019-02-02T01:01:25.965Z,4.37
2019-02-02T01:02:02.299Z,4.20
2019-02-02T01:02:38.502Z,4.37
2019-02-02T01:03:14.753Z,4.43
2019-02-02T01:03:50.822Z,3.80
2019-02-02T01:04:27.177Z,5.00
2019-02-02T01:05:03.229Z,4.63
2019-02-02T01:05:39.370Z,3.67
2019-02-02T01:06:15.473Z,4.97
2019-02-02T01:06:51.694Z,3.97
2019-02-02T01:07:27.839Z,4.73
2019-02-02T01:08:03.944Z,5.40
2019-02-02T01:08:40.295Z,4.23
2019-02-02T01:09:26.664Z,5.97
2019-02-02T01:10:02.874Z,3.97
2019-02-02T01:10:39.287Z,4.20
2019-02-02T01:11:15.524Z,4.70
2019-02-02T01:11:51.620Z,4.90
2019-02-02T01:12:27.594Z,4.10
2019-02-02T01:13:03.979Z,4.73
2019-02-02T01:13:40.035Z,4.20
2019-02-02T01:14:16.209Z,3.53
2019-02-02T01:14:52.312Z,3.87
2019-02-02T01:15:28.511Z,4.90
2019-02-02T01:16:04.553Z,5.07
2019-02-02T01:16:40.667Z,4.60
2019-02-02T01:17:16.718Z,3.50
2019-02-02T01:17:52.813Z,4.97
2019-02-02T01:18:29.081Z,5.13
2019-02-02T01:19:05.280Z,5.60
2019-02-02T01:19:41.274Z,5.17
2019-02-02T01:20:17.885Z,4.77
2019-02-02T01:20:53.952Z,3.67
2019-02-02T01:21:30.326Z,4.80
2019-02-02T01:22:06.687Z,4.50
2019-02-02T01:22:42.814Z,4.80
2019-02-02T01:23:18.997Z,5.20
2019-02-02T01:23:55.392Z,4.90
2019-02-02T01:24:31.422Z,4.73
2019-02-02T01:25:07.936Z,4.07
2019-02-02T01:25:44.225Z,4.07
2019-02-02T01:26:20.278Z,4.90
2019-02-02T01:26:56.417Z,4.50
2019-02-02T01:27:32.666Z,6.30
2019-02-02T01:28:08.846Z,4.60
2019-02-02T01:28:45.011Z,4.40
2019-02-02T01:29:21.321Z,5.27
2019-02-02T01:29:57.517Z,4.00
2019-02-02T01:30:33.604Z,4.83
2019-02-02T01:31:09.746Z,4.27
2019-02-02T01:31:45.946Z,5.20
2019-02-02T01:32:22.280Z,4.00
2019-02-02T01:32:58.472Z,4.50
2019-02-02T01:33:34.619Z,4.43
2019-02-02T01:34:10.646Z,4.77
2019-02-02T01:34:46.661Z,4.93
2019-02-02T01:35:22.935Z,4.57
2019-02-02T01:35:59.009Z,4.27
2019-02-02T01:36:35.139Z,4.70
2019-02-02T01:37:11.179Z,4.27
2019-02-02T01:37:47.365Z,4.33
2019-02-02T01:38:23.592Z,5.00
2019-02-02T01:38:59.740Z,3.60
2019-02-02T01:39:35.752Z,3.90
2019-02-02T01:40:14.534Z,4.00
2019-02-02T01:40:50.690Z,4.40
2019-02-02T01:41:26.750Z,5.00
2019-02-02T01:42:02.869Z,4.73
2019-02-02T01:42:39.127Z,4.40
2019-02-02T01:43:15.283Z,4.33
2019-02-02T01:43:51.343Z,3.90
2019-02-02T01:44:27.742Z,4.27
2019-02-02T01:45:03.724Z,4.40
2019-02-02T01:45:39.655Z,4.60
2019-02-02T01:46:15.666Z,4.27
2019-02-02T01:46:51.591Z,4.00
2019-02-02T01:47:27.590Z,4.00
2019-02-02T01:48:03.649Z,3.90
2019-02-02T01:48:39.954Z,4.30
2019-02-02T01:49:16.011Z,3.93
2019-02-02T01:49:51.973Z,5.10
2019-02-02T01:50:28.182Z,4.93
2019-02-02T01:51:04.337Z,4.20
2019-02-02T01:51:40.507Z,4.10
2019-02-02T01:52:16.747Z,3.93
2019-02-02T01:52:52.801Z,5.43
2019-02-02T01:53:28.926Z,4.57
2019-02-02T01:54:05.008Z,4.53
2019-02-02T01:54:41.149Z,3.97
2019-02-02T01:55:17.775Z,4.30
2019-02-02T01:55:53.896Z,4.57
2019-02-02T01:56:29.849Z,4.23
2019-02-02T01:57:06.035Z,4.80
2019-02-02T01:57:42.497Z,4.50
2019-02-02T01:58:18.510Z,4.17
2019-02-02T01:58:54.610Z,5.00
2019-02-02T01:59:30.633Z,4.47
2019-02-02T02:00:07.532Z,4.00
2019-02-02T02:00:43.729Z,5.10
2019-02-02T02:01:20.075Z,4.20
2019-02-02T02:01:56.357Z,4.80
2019-02-02T02:02:32.392Z,4.30
2019-02-02T02:03:08.539Z,4.17
2019-02-02T02:03:44.804Z,4.47
2019-02-02T02:04:21.008Z,4.40
2019-02-02T02:04:57.260Z,3.40
2019-02-02T02:05:33.309Z,3.80
2019-02-02T02:06:09.359Z,4.50
2019-02-02T02:06:45.461Z,4.13
2019-02-02T02:07:21.375Z,4.57
2019-02-02T02:07:57.359Z,4.67
2019-02-02T02:08:33.443Z,3.70
2019-02-02T02:09:10.321Z,5.07
2019-02-02T02:09:46.348Z,4.00
2019-02-02T02:10:22.704Z,4.50
2019-02-02T02:10:58.992Z,4.33
2019-02-02T02:11:35.188Z,5.17
2019-02-02T02:12:11.229Z,4.43
2019-02-02T02:12:47.407Z,4.20
2019-02-02T02:13:23.460Z,4.70
2019-02-02T02:13:59.512Z,4.43
2019-02-02T02:14:35.492Z,4.20
2019-02-02T02:15:13.811Z,3.50
2019-02-02T02:15:49.859Z,4.07
2019-02-02T02:16:25.817Z,5.27
2019-02-02T02:17:01.839Z,3.60
2019-02-02T02:17:37.874Z,4.20
2019-02-02T02:18:13.945Z,4.60
2019-02-02T02:18:50.001Z,4.40
2019-02-02T02:19:26.027Z,3.87
2019-02-02T02:20:02.119Z,4.00
2019-02-02T02:20:38.060Z,4.10
2019-02-02T02:21:14.267Z,4.23
2019-02-02T02:21:50.251Z,4.30
2019-02-02T02:22:26.274Z,5.40
2019-02-02T02:23:02.275Z,5.57
2019-02-02T02:23:38.348Z,3.70
2019-02-02T02:24:14.468Z,5.47
2019-02-02T02:24:50.584Z,4.70
2019-02-02T02:25:26.531Z,4.17
2019-02-02T02:26:02.487Z,4.00
2019-02-02T02:26:38.686Z,4.80
2019-02-02T02:27:14.930Z,4.50
2019-02-02T02:27:51.098Z,5.57
2019-02-02T02:28:28.433Z,4.00
2019-02-02T02:29:04.729Z,4.73
2019-02-02T02:29:41.944Z,5.43
2019-02-02T02:30:22.315Z,3.97
2019-02-02T02:30:58.336Z,4.70
2019-02-02T02:31:34.264Z,4.50
2019-02-02T02:32:10.351Z,4.23
2019-02-02T02:32:46.450Z,3.97
2019-02-02T02:33:22.456Z,4.60
2019-02-02T02:33:58.677Z,5.20
2019-02-02T02:34:34.620Z,4.70
2019-02-02T02:35:10.712Z,4.30
2019-02-02T02:35:47.582Z,3.73
2019-02-02T02:36:23.562Z,4.83
2019-02-02T02:36:59.656Z,3.97
2019-02-02T02:37:35.719Z,4.13
2019-02-02T02:38:11.675Z,4.10
2019-02-02T02:38:47.745Z,4.73
2019-02-02T02:39:23.972Z,5.20
2019-02-02T02:40:00.030Z,4.17
2019-02-02T02:40:36.316Z,4.10
2019-02-02T02:41:12.282Z,4.00
2019-02-02T02:41:48.271Z,5.43
2019-02-02T02:42:24.216Z,5.23
2019-02-02T02:43:00.137Z,5.50
2019-02-02T02:43:36.123Z,4.30
2019-02-02T02:44:12.434Z,3.93
2019-02-02T02:44:48.458Z,4.30
2019-02-02T02:45:24.680Z,4.77
2019-02-02T02:46:00.651Z,5.10
2019-02-02T02:46:36.724Z,4.83
2019-02-02T02:47:12.921Z,4.97
2019-02-02T02:47:49.259Z,4.70
2019-02-02T02:48:25.536Z,4.80
2019-02-02T02:49:01.516Z,4.60
2019-02-02T02:49:37.628Z,5.73
2019-02-02T02:50:15.625Z,4.30
2019-02-02T02:50:51.526Z,4.40
2019-02-02T02:51:27.516Z,4.90
2019-02-02T02:52:03.691Z,5.00
2019-02-02T02:52:39.847Z,4.63
2019-02-02T02:53:16.079Z,4.60
2019-02-02T02:53:52.144Z,4.90
2019-02-02T02:54:28.174Z,3.93
2019-02-02T02:55:05.965Z,4.80
2019-02-02T02:55:42.135Z,3.73
2019-02-02T02:56:18.262Z,4.63
2019-02-02T02:56:54.543Z,4.77
2019-02-02T02:57:30.689Z,4.53
2019-02-02T02:58:07.048Z,4.50
2019-02-02T02:58:42.993Z,5.60
2019-02-02T02:59:19.039Z,4.53
2019-02-02T02:59:55.128Z,4.57
2019-02-02T03:00:31.251Z,4.43
2019-02-02T03:01:07.405Z,5.00
2019-02-02T03:01:43.476Z,5.20
2019-02-02T03:02:19.464Z,5.37
2019-02-02T03:02:55.698Z,5.20
2019-02-02T03:03:31.967Z,5.43
2019-02-02T03:04:08.182Z,5.57
2019-02-02T03:04:44.371Z,5.10
2019-02-02T03:05:20.717Z,4.40
2019-02-02T03:05:56.884Z,5.33
2019-02-02T03:06:33.049Z,4.07
2019-02-02T03:07:09.049Z,5.20
2019-02-02T03:07:45.153Z,5.70
2019-02-02T03:08:21.393Z,4.77
2019-02-02T03:08:57.396Z,5.77
2019-02-02T03:09:33.424Z,4.10
2019-02-02T03:10:11.246Z,4.73
2019-02-02T03:10:47.364Z,5.40
2019-02-02T03:11:23.418Z,5.00
2019-02-02T03:11:59.662Z,4.27
2019-02-02T03:12:35.564Z,4.47
2019-02-02T03:13:11.571Z,5.83
2019-02-02T03:13:47.826Z,4.93
2019-02-02T03:14:24.459Z,5.37
2019-02-02T03:15:00.473Z,6.00
2019-02-02T03:15:36.577Z,5.20
2019-02-02T03:16:12.639Z,4.50
2019-02-02T03:16:48.736Z,5.27
2019-02-02T03:17:24.982Z,6.33
2019-02-02T03:18:01.127Z,5.93
2019-02-02T03:18:37.419Z,4.97
2019-02-02T03:19:13.500Z,4.77
2019-02-02T03:19:49.558Z,5.27
2019-02-02T03:20:25.510Z,4.60
2019-02-02T03:21:01.760Z,4.80
2019-02-02T03:21:37.970Z,5.37
2019-02-02T03:22:14.218Z,5.00
2019-02-02T03:22:50.381Z,4.97
2019-02-02T03:23:26.442Z,4.63
2019-02-02T03:24:02.517Z,5.33
2019-02-02T03:24:38.659Z,5.40
2019-02-02T03:25:16.924Z,5.80
2019-02-02T03:25:52.995Z,5.53
2019-02-02T03:26:29.046Z,5.77
2019-02-02T03:27:05.386Z,5.53
2019-02-02T03:27:41.578Z,5.70
2019-02-02T03:28:17.716Z,4.80
2019-02-02T03:28:53.947Z,4.40
2019-02-02T03:29:30.142Z,5.60
2019-02-02T03:30:06.913Z,6.00
2019-02-02T03:30:43.002Z,5.60
2019-02-02T03:31:19.056Z,6.27
2019-02-02T03:31:55.243Z,5.50
2019-02-02T03:32:31.395Z,6.00
2019-02-02T03:33:07.477Z,5.07
2019-02-02T03:33:43.756Z,5.80
2019-02-02T03:34:19.819Z,5.40
2019-02-02T03:34:56.147Z,5.27
2019-02-02T03:35:32.297Z,5.70
2019-02-02T03:36:08.327Z,5.90
2019-02-02T03:36:44.490Z,6.83
2019-02-02T03:37:20.635Z,6.17
2019-02-02T03:37:56.674Z,6.17
2019-02-02T03:38:32.569Z,6.67
2019-02-02T03:39:12.649Z,5.77
2019-02-02T03:39:48.772Z,6.67
2019-02-02T03:40:25.400Z,6.97
2019-02-02T03:41:01.420Z,7.37
2019-02-02T03:41:37.462Z,6.23
2019-02-02T03:42:13.556Z,6.67
2019-02-02T03:42:49.928Z,8.20
2019-02-02T03:43:26.206Z,6.60
2019-02-02T03:44:02.363Z,7.07
2019-02-02T03:44:38.540Z,7.90
2019-02-02T03:45:15.844Z,7.47
2019-02-02T03:45:52.006Z,7.43
2019-02-02T03:46:27.951Z,6.00
2019-02-02T03:47:03.972Z,6.67
2019-02-02T03:47:40.052Z,6.70
2019-02-02T03:48:15.953Z,6.30
2019-02-02T03:48:51.894Z,6.23
2019-02-02T03:49:27.912Z,7.67
2019-02-02T03:50:03.920Z,6.67
2019-02-02T03:50:39.898Z,6.10
2019-02-02T03:51:15.961Z,7.27
2019-02-02T03:51:52.071Z,7.07
2019-02-02T03:52:28.158Z,6.30
2019-02-02T03:53:04.063Z,6.20
2019-02-02T03:53:41.384Z,6.20
2019-02-02T03:54:17.613Z,7.10
2019-02-02T03:54:53.720Z,7.57
2019-02-02T03:55:29.811Z,8.03
2019-02-02T03:56:06.074Z,6.63
2019-02-02T03:56:42.241Z,6.00
2019-02-02T03:57:18.513Z,6.73
2019-02-02T03:57:54.750Z,7.13
2019-02-02T03:58:30.881Z,6.60
2019-02-02T03:59:07.281Z,6.70
2019-02-02T03:59:43.454Z,6.50
2019-02-02T04:00:21.151Z,6.30
2019-02-02T04:00:57.446Z,7.30
2019-02-02T04:01:33.585Z,5.97
2019-02-02T04:02:09.616Z,6.20
2019-02-02T04:02:45.728Z,6.50
2019-02-02T04:03:21.808Z,5.47
2019-02-02T04:03:57.998Z,6.07
2019-02-02T04:04:34.294Z,6.70
2019-02-02T04:05:13.177Z,6.20
2019-02-02T04:05:49.604Z,7.63
2019-02-02T04:06:26.202Z,6.67
2019-02-02T04:07:02.768Z,6.60
2019-02-02T04:07:39.185Z,6.83
2019-02-02T04:08:15.379Z,7.00
2019-02-02T04:08:51.569Z,7.50
2019-02-02T04:09:27.569Z,6.27
2019-02-02T04:10:03.661Z,7.57
2019-02-02T04:10:39.652Z,7.20
2019-02-02T04:11:15.679Z,6.83
2019-02-02T04:11:51.724Z,7.27
2019-02-02T04:12:27.925Z,6.90
2019-02-02T04:13:03.883Z,7.50
2019-02-02T04:13:39.927Z,7.90
2019-02-02T04:14:15.966Z,6.23
2019-02-02T04:14:52.008Z,6.77
2019-02-02T04:15:28.114Z,6.53
2019-02-02T04:16:04.264Z,7.33
2019-02-02T04:16:40.244Z,7.60
2019-02-02T04:17:16.283Z,7.77
2019-02-02T04:17:52.827Z,6.70
2019-02-02T04:18:28.927Z,6.90
2019-02-02T04:19:05.096Z,6.90
2019-02-02T04:19:41.311Z,6.90
2019-02-02T04:20:19.410Z,6.30
2019-02-02T04:20:55.500Z,6.43
2019-02-02T04:21:31.537Z,6.50
2019-02-02T04:22:07.752Z,7.43
2019-02-02T04:22:43.893Z,6.00
2019-02-02T04:23:20.078Z,6.70
2019-02-02T04:23:56.165Z,5.70
2019-02-02T04:24:32.149Z,7.83
2019-02-02T04:25:08.668Z,6.70
2019-02-02T04:25:44.874Z,6.70
2019-02-02T04:26:21.031Z,6.70
2019-02-02T04:26:57.085Z,6.70
2019-02-02T04:27:33.065Z,6.77
2019-02-02T04:28:09.184Z,7.00
2019-02-02T04:28:45.351Z,6.40
2019-02-02T04:29:21.572Z,7.67
2019-02-02T04:29:57.695Z,6.30
2019-02-02T04:30:33.824Z,6.37
2019-02-02T04:31:11.678Z,6.20
2019-02-02T04:31:47.891Z,6.97
2019-02-02T04:32:24.123Z,7.37
2019-02-02T04:33:00.279Z,6.90
2019-02-02T04:33:36.385Z,7.37
2019-02-02T04:34:12.624Z,6.63
2019-02-02T04:34:48.613Z,6.97
2019-02-02T04:35:24.741Z,7.07
2019-02-02T04:36:00.793Z,7.37
2019-02-02T04:36:37.010Z,5.33
2019-02-02T04:37:13.219Z,7.40
2019-02-02T04:37:49.195Z,7.10
2019-02-02T04:38:25.343Z,5.63
2019-02-02T04:39:01.611Z,7.00
2019-02-02T04:39:37.746Z,6.40
2019-02-02T04:40:14.520Z,6.60
2019-02-02T04:40:50.756Z,6.77
2019-02-02T04:41:26.764Z,5.90
2019-02-02T04:42:02.770Z,6.67
2019-02-02T04:42:38.864Z,6.13
2019-02-02T04:43:15.029Z,7.13
2019-02-02T04:43:51.037Z,6.00
2019-02-02T04:44:27.164Z,6.67
2019-02-02T04:45:03.259Z,6.63
2019-02-02T04:45:39.451Z,6.50
2019-02-02T04:46:15.556Z,6.87
2019-02-02T04:46:51.566Z,6.80
2019-02-02T04:47:27.725Z,7.00
2019-02-02T04:48:04.007Z,6.70
2019-02-02T04:48:40.150Z,6.73
2019-02-02T04:49:16.238Z,5.90
2019-02-02T04:49:52.181Z,6.50
2019-02-02T04:50:28.367Z,5.87
2019-02-02T04:51:04.602Z,5.30
2019-02-02T04:51:40.643Z,5.63
2019-02-02T04:52:16.710Z,6.00
2019-02-02T04:52:52.671Z,6.60
2019-02-02T04:53:28.637Z,6.63
2019-02-02T04:54:04.658Z,6.60
2019-02-02T04:54:40.673Z,5.60
2019-02-02T04:55:17.968Z,5.40
2019-02-02T04:55:53.993Z,5.27
2019-02-02T04:56:30.107Z,4.63
2019-02-02T04:57:06.218Z,6.10
2019-02-02T04:57:42.293Z,5.20
2019-02-02T04:58:18.543Z,5.60
2019-02-02T04:58:54.583Z,5.80
2019-02-02T04:59:30.645Z,5.90
2019-02-02T05:00:08.350Z,5.67
2019-02-02T05:00:44.618Z,4.53
2019-02-02T05:01:20.749Z,4.90
2019-02-02T05:01:56.993Z,4.73
2019-02-02T05:02:33.113Z,5.03
2019-02-02T05:03:09.311Z,5.63
2019-02-02T05:03:45.387Z,4.70
2019-02-02T05:04:21.384Z,4.83
2019-02-02T05:04:57.306Z,4.87
2019-02-02T05:05:33.343Z,4.97
2019-02-02T05:06:09.614Z,5.20
2019-02-02T05:06:45.699Z,6.00
2019-02-02T05:07:21.683Z,5.40
2019-02-02T05:07:57.829Z,5.23
2019-02-02T05:08:33.933Z,4.80
2019-02-02T05:09:10.716Z,4.90
2019-02-02T05:09:46.711Z,6.40
2019-02-02T05:10:23.361Z,5.13
2019-02-02T05:10:59.328Z,4.47
2019-02-02T05:11:35.386Z,4.00
2019-02-02T05:12:11.340Z,4.80
2019-02-02T05:12:47.373Z,4.27
2019-02-02T05:13:23.476Z,4.47
2019-02-02T05:13:59.505Z,4.70
2019-02-02T05:14:35.722Z,5.23
2019-02-02T05:15:11.879Z,5.53
2019-02-02T05:15:47.846Z,5.00
2019-02-02T05:16:24.134Z,4.73
2019-02-02T05:17:00.296Z,4.53
2019-02-02T05:17:37.034Z,6.03
2019-02-02T05:18:13.188Z,5.60
2019-02-02T05:18:49.420Z,4.83
2019-02-02T05:19:25.443Z,4.93
2019-02-02T05:20:01.732Z,3.83
2019-02-02T05:20:37.976Z,4.63
2019-02-02T05:21:14.005Z,5.00
2019-02-02T05:21:50.377Z,5.20
2019-02-02T05:22:26.469Z,4.57
2019-02-02T05:23:02.519Z,4.53
2019-02-02T05:23:38.698Z,4.70
2019-02-02T05:24:14.685Z,4.53
2019-02-02T05:24:50.710Z,5.23
2019-02-02T05:25:26.697Z,4.70
2019-02-02T05:26:02.662Z,4.80
2019-02-02T05:26:38.699Z,4.40
2019-02-02T05:27:14.888Z,4.40
2019-02-02T05:27:50.958Z,4.33
2019-02-02T05:28:27.039Z,4.20
2019-02-02T05:29:03.186Z,4.23
2019-02-02T05:29:41.603Z,4.30
2019-02-02T05:30:25.303Z,4.20
2019-02-02T05:31:01.552Z,3.77
2019-02-02T05:31:38.103Z,4.80
2019-02-02T05:32:14.277Z,4.47
2019-02-02T05:32:50.282Z,4.57
2019-02-02T05:33:26.247Z,4.47
2019-02-02T05:34:02.301Z,3.27
2019-02-02T05:34:38.407Z,3.40
2019-02-02T05:35:14.573Z,4.13
2019-02-02T05:35:50.651Z,3.50
2019-02-02T05:36:26.599Z,4.17
2019-02-02T05:37:02.632Z,3.90
2019-02-02T05:37:38.768Z,3.47
2019-02-02T05:38:14.933Z,3.70
2019-02-02T05:38:50.918Z,3.23
2019-02-02T05:39:27.027Z,3.07
2019-02-02T05:40:03.249Z,3.20
2019-02-02T05:40:39.420Z,3.40
2019-02-02T05:41:15.676Z,3.30
2019-02-02T05:41:51.892Z,3.17
2019-02-02T05:42:27.887Z,3.80
2019-02-02T05:43:04.061Z,3.10
2019-02-02T05:43:40.085Z,3.00
2019-02-02T05:44:16.018Z,2.80
2019-02-02T05:44:52.203Z,3.37
2019-02-02T05:45:28.363Z,3.90
2019-02-02T05:46:04.461Z,4.10
2019-02-02T05:46:40.735Z,3.20
2019-02-02T05:47:16.794Z,3.13
2019-02-02T05:47:52.935Z,3.47
2019-02-02T05:48:29.164Z,2.77
2019-02-02T05:49:05.340Z,3.20
2019-02-02T05:49:41.390Z,3.53
2019-02-02T05:50:19.449Z,3.73
2019-02-02T05:50:55.534Z,3.60
2019-02-02T05:51:31.777Z,3.20
2019-02-02T05:52:08.024Z,2.70
2019-02-02T05:52:44.151Z,2.70
2019-02-02T05:53:20.287Z,3.80
2019-02-02T05:53:56.266Z,3.63
2019-02-02T05:54:32.207Z,3.50
2019-02-02T05:55:09.631Z,3.67
2019-02-02T05:55:45.633Z,2.97
2019-02-02T05:56:21.773Z,3.70
2019-02-02T05:56:58.035Z,3.87
2019-02-02T05:57:34.396Z,4.13
2019-02-02T05:58:10.552Z,3.00
2019-02-02T05:58:46.549Z,3.70
2019-02-02T05:59:22.817Z,4.07
2019-02-02T05:59:58.830Z,4.03
2019-02-02T06:00:43.867Z,4.23
2019-02-02T06:01:20.505Z,3.10
2019-02-02T06:01:56.442Z,4.20
2019-02-02T06:02:32.450Z,4.30
2019-02-02T06:03:08.490Z,5.50
2019-02-02T06:03:44.481Z,5.03
2019-02-02T06:04:20.464Z,4.97
2019-02-02T06:04:56.518Z,6.67
2019-02-02T06:05:32.719Z,4.57
2019-02-02T06:06:08.695Z,4.97
2019-02-02T06:06:44.861Z,5.73
2019-02-02T06:07:21.167Z,5.40
2019-02-02T06:07:57.187Z,6.20
2019-02-02T06:08:33.274Z,5.57
2019-02-02T06:09:10.236Z,4.93
2019-02-02T06:09:46.276Z,4.60
2019-02-02T06:10:22.466Z,5.50
2019-02-02T06:10:58.481Z,5.43
2019-02-02T06:11:34.685Z,5.03
2019-02-02T06:12:11.252Z,4.93
2019-02-02T06:12:47.360Z,5.90
2019-02-02T06:13:23.432Z,5.30
2019-02-02T06:13:59.641Z,5.03
2019-02-02T06:14:35.748Z,4.13
2019-02-02T06:15:12.094Z,5.90
2019-02-02T06:15:48.293Z,5.10
2019-02-02T06:16:24.410Z,5.43
2019-02-02T06:17:00.481Z,5.17
2019-02-02T06:17:36.585Z,4.53
2019-02-02T06:18:12.858Z,5.00
2019-02-02T06:18:48.987Z,4.80
2019-02-02T06:19:24.983Z,6.17
2019-02-02T06:20:01.210Z,4.63
2019-02-02T06:20:37.384Z,5.53
2019-02-02T06:21:13.654Z,4.53
2019-02-02T06:21:49.980Z,5.77
2019-02-02T06:22:26.199Z,5.10
2019-02-02T06:23:02.350Z,4.47
2019-02-02T06:23:38.630Z,4.20
2019-02-02T06:24:14.751Z,5.13
2019-02-02T06:24:52.755Z,5.27
2019-02-02T06:25:28.979Z,5.00
2019-02-02T06:26:05.108Z,4.40
2019-02-02T06:26:41.333Z,4.67
2019-02-02T06:27:17.287Z,4.90
2019-02-02T06:27:53.307Z,4.33
2019-02-02T06:28:29.290Z,3.90
2019-02-02T06:29:05.499Z,4.53
2019-02-02T06:29:41.571Z,5.13
2019-02-02T06:30:19.075Z,4.97
2019-02-02T06:30:55.370Z,5.43
2019-02-02T06:31:31.567Z,4.50
2019-02-02T06:32:11.816Z,4.33
2019-02-02T06:32:45.440Z,5.10
2019-02-02T06:33:21.664Z,4.50
2019-02-02T06:33:57.793Z,4.00
2019-02-02T06:34:33.986Z,4.20
2019-02-02T06:35:11.710Z,4.10
2019-02-02T06:35:47.780Z,3.90
2019-02-02T06:36:23.866Z,4.43
2019-02-02T06:37:00.201Z,4.10
2019-02-02T06:37:36.231Z,4.00
2019-02-02T06:38:12.320Z,4.20
2019-02-02T06:38:48.551Z,4.87
2019-02-02T06:39:24.617Z,4.20
2019-02-02T06:40:00.884Z,3.80
2019-02-02T06:40:37.184Z,3.97
2019-02-02T06:41:13.616Z,3.97
2019-02-02T06:41:49.776Z,3.77
2019-02-02T06:42:25.887Z,3.60
2019-02-02T06:43:01.889Z,3.67
2019-02-02T06:43:38.034Z,4.80
2019-02-02T06:44:14.362Z,4.07
2019-02-02T06:44:50.473Z,4.20
2019-02-02T06:45:29.078Z,4.90
2019-02-02T06:46:05.220Z,4.97
2019-02-02T06:46:43.617Z,4.30
2019-02-02T06:47:19.232Z,4.07
2019-02-02T06:47:57.053Z,4.50
2019-02-02T06:48:33.296Z,4.70
2019-02-02T06:49:09.544Z,4.70
2019-02-02T06:49:45.740Z,4.57
2019-02-02T06:50:21.851Z,5.03
2019-02-02T06:50:57.865Z,4.13
2019-02-02T06:51:33.975Z,5.00
2019-02-02T06:52:10.001Z,4.33
2019-02-02T06:52:46.146Z,4.00
2019-02-02T06:53:22.395Z,3.93
2019-02-02T06:53:58.490Z,3.80
2019-02-02T06:54:34.633Z,3.80
2019-02-02T06:55:11.479Z,4.53
2019-02-02T06:55:47.396Z,4.60
2019-02-02T06:56:23.642Z,4.03
2019-02-02T06:56:59.761Z,4.40
2019-02-02T06:57:35.816Z,5.17
2019-02-02T06:58:11.810Z,6.07
2019-02-02T06:58:48.054Z,6.30
2019-02-02T06:59:24.034Z,6.50
2019-02-02T07:00:00.017Z,7.20
2019-02-02T07:00:36.087Z,6.60
2019-02-02T07:01:12.382Z,6.67
2019-02-02T07:01:48.555Z,5.80
2019-02-02T07:02:24.631Z,6.53
2019-02-02T07:03:00.744Z,6.53
2019-02-02T07:03:36.883Z,4.83
2019-02-02T07:04:12.930Z,6.43
2019-02-02T07:04:49.053Z,4.67
2019-02-02T07:05:25.379Z,5.53
2019-02-02T07:06:01.464Z,5.50
2019-02-02T07:06:37.602Z,5.17
2019-02-02T07:07:13.617Z,5.73
2019-02-02T07:07:49.843Z,5.50
2019-02-02T07:08:25.859Z,5.07
2019-02-02T07:09:01.840Z,5.87
2019-02-02T07:09:37.926Z,5.93
2019-02-02T07:10:16.782Z,5.17
2019-02-02T07:10:52.792Z,4.40
2019-02-02T07:11:28.736Z,5.33
2019-02-02T07:12:04.690Z,5.33
2019-02-02T07:12:40.731Z,5.33
2019-02-02T07:13:16.613Z,4.43
2019-02-02T07:13:52.618Z,5.33
2019-02-02T07:14:28.661Z,5.37
2019-02-02T07:15:04.571Z,4.83
2019-02-02T07:15:40.504Z,5.13
2019-02-02T07:16:16.479Z,4.90
2019-02-02T07:16:52.470Z,5.30
2019-02-02T07:17:28.460Z,5.33
2019-02-02T07:18:04.426Z,4.83
2019-02-02T07:18:40.515Z,4.37
2019-02-02T07:19:16.710Z,4.80
2019-02-02T07:19:52.646Z,4.73
2019-02-02T07:20:28.694Z,4.73
2019-02-02T07:21:04.606Z,4.17
2019-02-02T07:21:40.669Z,5.00
2019-02-02T07:22:16.643Z,4.97
2019-02-02T07:22:52.709Z,6.27
2019-02-02T07:23:28.618Z,4.97
2019-02-02T07:24:04.555Z,5.00
2019-02-02T07:24:40.559Z,6.23
2019-02-02T07:25:16.753Z,5.10
2019-02-02T07:25:52.803Z,4.90
2019-02-02T07:26:28.903Z,4.77
2019-02-02T07:27:04.992Z,5.47
2019-02-02T07:27:41.064Z,5.50
2019-02-02T07:28:17.149Z,5.83
2019-02-02T07:28:53.204Z,5.77
2019-02-02T07:29:29.311Z,5.77
2019-02-02T07:30:06.292Z,5.00
2019-02-02T07:30:42.406Z,5.17
2019-02-02T07:31:18.528Z,4.90
2019-02-02T07:31:54.490Z,5.13
2019-02-02T07:32:30.495Z,5.10
2019-02-02T07:33:06.575Z,4.83
2019-02-02T07:33:42.610Z,5.53
2019-02-02T07:34:18.721Z,5.77
2019-02-02T07:34:54.886Z,5.90
2019-02-02T07:35:31.444Z,5.50
2019-02-02T07:36:07.496Z,5.47
2019-02-02T07:36:43.432Z,5.80
2019-02-02T07:37:19.566Z,4.10
2019-02-02T07:37:55.687Z,4.30
2019-02-02T07:38:31.807Z,5.90
2019-02-02T07:39:09.534Z,5.63
2019-02-02T07:39:45.542Z,5.00
2019-02-02T07:40:21.647Z,6.33
2019-02-02T07:40:57.848Z,5.23
2019-02-02T07:41:33.969Z,6.33
2019-02-02T07:42:10.170Z,4.40
2019-02-02T07:42:46.269Z,6.00
2019-02-02T07:43:22.244Z,5.60
2019-02-02T07:43:58.374Z,5.43
2019-02-02T07:44:34.455Z,5.73
2019-02-02T07:45:36.660Z,5.20
2019-02-02T07:46:14.996Z,5.00
2019-02-02T07:46:50.609Z,5.30
2019-02-02T07:47:26.715Z,5.40
2019-02-02T07:48:02.824Z,4.83
2019-02-02T07:48:39.069Z,5.60
2019-02-02T07:49:15.232Z,5.73
2019-02-02T07:49:51.509Z,6.30
2019-02-02T07:50:27.674Z,6.57
2019-02-02T07:51:03.877Z,5.57
2019-02-02T07:51:40.029Z,6.23
2019-02-02T07:52:16.231Z,6.37
2019-02-02T07:52:52.408Z,6.43
2019-02-02T07:53:28.443Z,5.60
2019-02-02T07:54:04.705Z,5.77
2019-02-02T07:54:40.821Z,5.17
2019-02-02T07:55:17.985Z,5.20
2019-02-02T07:55:54.344Z,6.33
2019-02-02T07:56:30.517Z,5.43
2019-02-02T07:57:06.638Z,4.93
2019-02-02T07:57:42.760Z,5.10
2019-02-02T07:58:18.978Z,4.97
2019-02-02T07:58:55.052Z,5.10
2019-02-02T07:59:31.067Z,6.03
2019-02-02T08:00:09.896Z,5.90
2019-02-02T08:00:46.170Z,5.50
2019-02-02T08:01:22.514Z,5.90
2019-02-02T08:01:58.585Z,5.57
2019-02-02T08:02:34.758Z,5.60
2019-02-02T08:03:12.574Z,5.70
2019-02-02T08:03:48.818Z,5.60